Latest Weather Observations for Mount William

IDV60801

Issued at 3:22 pm EST Saturday 2 July 2022 (issued every 10 minutes, with the page automatically refreshed every 10 minutes)

About weather observations | Map of weather stations | Latest weather observations for VIC | Other Formats
Station Details ID: 079103 Name: MOUNT WILLIAM Lat: -37.30 Lon: 142.60 Height: 1150.0 m
Data from the previous 72 hours. | See also: Recent months at Mount William
Date/Time
EST
Temp
°C
App
Temp
°C
Dew
Point
°C
Rel
Hum
%
Delta-T
°C
Wind Press
QNH
hPa
Press
MSL
hPa
Rain since
9am
mm
Dir  Spd
km/h
Gust
km/h
Spd
kts
Gust
kts
02/03:00pm 2.2 -4.8 2.2 100 0.0 S 28 37 15 20 - - 0.0
02/02:30pm 2.0 -6.3 2.0 100 0.0 S 35 44 19 24 - - 0.0
02/02:00pm 1.8 -6.2 1.8 100 0.0 S 33 43 18 23 - - 0.0
02/01:30pm 2.0 -5.9 2.0 100 0.0 S 33 43 18 23 - - 0.0
02/01:00pm 1.8 -6.6 1.8 100 0.0 S 35 46 19 25 - - 0.0
02/12:30pm 1.7 -6.7 1.7 100 0.0 S 35 44 19 24 - - 0.0
02/12:00pm 1.7 -6.7 1.7 100 0.0 S 35 44 19 24 - - 0.0
02/11:30am 1.7 -6.3 1.7 100 0.0 S 33 43 18 23 - - 0.0
02/11:00am 1.5 -6.9 1.5 100 0.0 S 35 46 19 25 - - 0.0
02/10:30am 1.1 -8.5 1.1 100 0.0 S 41 50 22 27 - - 0.0
02/10:00am 0.8 -9.4 0.8 100 0.0 S 44 50 24 27 - - 0.0
02/09:30am 0.7 -9.9 0.7 100 0.0 S 46 50 25 27 - - 0.0
02/09:00am 0.4 -8.9 0.4 100 0.0 S 39 46 21 25 - - 0.0
02/08:30am 0.3 -9.4 0.3 100 0.0 S 41 50 22 27 - - 0.0
02/08:00am 0.1 -9.3 0.1 100 0.0 S 39 46 21 25 - - 0.0
02/07:30am 0.2 -8.8 0.2 100 0.0 S 37 44 20 24 - - 0.0
02/07:00am 0.2 -8.4 0.2 100 0.0 S 35 44 19 24 - - 0.0
02/06:30am 0.0 -8.6 0.0 100 0.0 S 35 41 19 22 - - 0.0
02/06:00am 0.4 -7.2 0.4 100 0.0 S 30 35 16 19 - - 0.0
02/05:30am 0.2 -7.8 0.2 100 0.0 S 32 39 17 21 - - 0.0
02/05:00am 0.3 -7.7 0.3 100 0.0 S 32 43 17 23 - - 0.0
02/04:30am 0.4 -7.2 0.4 100 0.0 S 30 39 16 21 - - 0.0
02/04:00am 0.4 -7.6 0.4 100 0.0 S 32 41 17 22 - - 0.0
02/03:30am 0.3 -8.3 0.3 100 0.0 S 35 43 19 23 - - 0.0
02/03:00am 0.6 -6.6 0.6 100 0.0 S 28 39 15 21 - - 0.0
02/02:30am 0.6 -7.6 0.6 100 0.0 S 33 43 18 23 - - 0.0
02/02:00am 0.5 -7.7 0.5 100 0.0 S 33 41 18 22 - - 0.0
02/01:30am 0.7 -7.3 0.7 100 0.0 S 32 41 17 22 - - 0.0
02/01:00am 0.6 -7.4 0.6 100 0.0 S 32 37 17 20 - - 0.0
02/12:30am 0.8 -7.1 0.8 100 0.0 S 32 39 17 21 - - 0.0
02/12:00am 0.9 -7.0 0.9 100 0.0 S 32 39 17 21 - - 0.0
 
Date/Time
EST
Temp
°C
App
Temp
°C
Dew
Point
°C
Rel
Hum
%
Delta-T
°C
Wind Press
QNH
hPa
Press
MSL
hPa
Rain since
9am
mm
Dir  Spd
km/h
Gust
km/h
Spd
kts
Gust
kts
01/11:30pm 0.9 -7.0 0.9 100 0.0 S 32 39 17 21 - - 0.0
01/11:00pm 0.8 -7.1 0.8 100 0.0 S 32 39 17 21 - - 0.0
01/10:30pm 0.6 -7.9 0.6 100 0.0 S 35 43 19 23 - - 0.0
01/10:00pm 0.6 -7.9 0.6 100 0.0 S 35 44 19 24 - - 0.0
01/09:30pm 0.9 -7.6 0.9 100 0.0 S 35 44 19 24 - - 0.0
01/09:00pm 0.7 -7.4 0.7 100 0.0 S 33 43 18 23 - - 0.0
01/08:30pm 0.5 -8.4 0.5 100 0.0 S 37 46 20 25 - - 0.0
01/08:00pm 0.6 -7.4 0.6 100 0.0 S 32 43 17 23 - - 0.0
01/07:30pm 0.5 -7.7 0.5 100 0.0 S 33 44 18 24 - - 0.0
01/07:00pm 0.5 -7.5 0.5 100 0.0 S 32 41 17 22 - - 0.0
01/06:30pm 0.3 -7.0 0.3 100 0.0 S 28 39 15 21 - - 0.0
01/06:00pm 0.4 -7.2 0.4 100 0.0 S 30 37 16 20 - - 0.0
01/05:30pm 0.3 -7.7 0.3 100 0.0 S 32 44 17 24 - - 0.0
01/05:00pm 0.6 -5.1 0.6 100 0.0 S 20 33 11 18 - - 0.0
01/04:30pm 0.9 -5.5 0.9 100 0.0 S 24 32 13 17 - - 0.0
01/04:00pm 0.8 -5.6 0.8 100 0.0 S 24 32 13 17 - - 0.0
01/03:30pm 0.7 -5.7 0.7 100 0.0 S 24 35 13 19 - - 0.0
01/03:00pm 1.2 -4.8 1.2 100 0.0 S 22 37 12 20 - - 0.0
01/02:30pm 1.2 -5.2 1.2 100 0.0 S 24 33 13 18 - - 0.0
01/02:00pm 1.2 -4.8 1.2 100 0.0 S 22 30 12 16 - - 0.0
01/01:30pm 1.3 -4.3 1.3 100 0.0 S 20 30 11 16 - - 0.0
01/01:00pm 1.3 -5.4 1.3 100 0.0 SSE 26 33 14 18 - - 0.0
01/12:30pm 1.0 -5.4 1.0 100 0.0 S 24 37 13 20 - - 0.0
01/12:00pm 1.1 -5.3 1.1 100 0.0 SSE 24 39 13 21 - - 0.0
01/11:30am 0.9 -6.6 0.9 100 0.0 S 30 43 16 23 - - 0.0
01/11:00am 0.6 -7.9 0.6 100 0.0 S 35 48 19 26 - - 0.0
01/10:48am 0.8 -7.1 0.8 100 0.0 S 32 50 17 27 - - 0.0
01/10:30am 0.6 -7.6 0.6 100 0.0 S 33 44 18 24 - - 0.0
01/10:00am 0.6 -8.7 0.6 100 0.0 S 39 52 21 28 - - 0.0
01/09:30am 0.6 -8.7 0.6 100 0.0 S 39 50 21 27 - - 0.0
01/09:00am 0.6 -9.1 0.6 100 0.0 S 41 56 22 30 - - 0.0
01/08:30am 0.4 -9.7 0.4 100 0.0 S 43 54 23 29 - - 0.0
01/08:09am 0.4 -9.7 0.4 100 0.0 S 43 63 23 34 - - 0.0
01/08:00am 0.3 -9.4 0.3 100 0.0 S 41 56 22 30 - - 0.0
01/07:30am 0.3 -9.4 0.3 100 0.0 S 41 52 22 28 - - 0.0
01/07:00am 0.3 -9.0 0.3 100 0.0 S 39 50 21 27 - - 0.0
01/06:30am 0.3 -8.7 0.3 100 0.0 S 37 50 20 27 - - 0.0
01/06:00am 0.5 -8.8 0.5 100 0.0 S 39 50 21 27 - - 0.0
01/05:30am 0.7 -8.6 0.7 100 0.0 S 39 48 21 26 - - 0.0
01/05:00am 0.5 -9.2 0.5 100 0.0 S 41 52 22 28 - - 0.0
01/04:30am 0.5 -9.2 0.5 100 0.0 S 41 54 22 29 - - 0.0
01/04:00am 1.0 -7.5 1.0 100 0.0 S 35 48 19 26 - - 0.0
01/03:30am 1.3 -7.1 1.3 100 0.0 SSW 35 46 19 25 - - 0.0
01/03:00am 1.7 -7.0 1.7 100 0.0 S 37 50 20 27 - - 0.0
01/02:30am 1.8 -6.9 1.8 100 0.0 S 37 46 20 25 - - 0.0
01/02:00am 2.2 -5.7 2.2 100 0.0 S 33 43 18 23 - - 0.0
01/01:30am 2.4 -5.5 2.4 100 0.0 S 33 44 18 24 - - 0.0
01/01:00am 2.6 -6.0 2.6 100 0.0 S 37 44 20 24 - - 0.0
01/12:30am 2.6 -5.2 2.6 100 0.0 S 33 44 18 24 - - 0.0
01/12:00am 2.7 -5.1 2.7 100 0.0 S 33 46 18 25 - - 0.0
 
Date/Time
EST
Temp
°C
App
Temp
°C
Dew
Point
°C
Rel
Hum
%
Delta-T
°C
Wind Press
QNH
hPa
Press
MSL
hPa
Rain since
9am
mm
Dir  Spd
km/h
Gust
km/h
Spd
kts
Gust
kts
30/11:30pm 3.2 -4.3 3.2 100 0.0 S 32 43 17 23 - - 0.0
30/11:00pm 3.0 -4.2 3.0 100 0.0 S 30 41 16 22 - - 0.0
30/10:30pm 3.4 -3.0 3.4 100 0.0 S 26 35 14 19 - - 0.0
30/10:00pm 3.5 -3.2 3.5 100 0.0 S 28 39 15 21 - - 0.0
30/09:30pm 3.8 -2.1 3.8 100 0.0 SSE 24 39 13 21 - - 0.0
30/09:00pm 3.8 -1.2 3.8 100 0.0 S 19 30 10 16 - - 0.0
30/08:30pm 3.6 -2.4 3.6 100 0.0 S 24 35 13 19 - - 0.0
30/08:00pm 3.2 -2.4 3.2 100 0.0 S 22 33 12 18 - - 0.0
30/07:30pm 3.1 -2.9 3.1 100 0.0 S 24 33 13 18 - - 0.0
30/07:00pm 3.0 -2.7 3.0 100 0.0 S 22 30 12 16 - - 0.0
30/06:30pm 3.2 -2.1 3.2 100 0.0 SSE 20 30 11 16 - - 0.0
30/06:00pm 3.2 -2.8 3.2 100 0.0 S 24 32 13 17 - - 0.0
30/05:30pm 2.9 -3.2 2.9 100 0.0 S 24 30 13 16 - - 0.0
30/05:00pm 3.0 -3.1 3.0 100 0.0 S 24 33 13 18 - - 0.0
30/04:30pm 3.2 -2.8 3.2 100 0.0 SSW 24 32 13 17 - - 0.0
30/04:00pm 3.1 -2.6 3.1 100 0.0 SSW 22 30 12 16 - - 0.0
30/03:30pm 3.5 -2.1 3.5 100 0.0 SSW 22 32 12 17 - - 0.0
30/03:00pm 3.6 -0.6 3.6 100 0.0 S 15 22 8 12 - - 0.0
30/02:30pm 4.0 0.9 3.6 97 0.2 S 9 15 5 8 - - 0.0
30/02:00pm 4.1 0.7 4.1 100 0.0 S 11 15 6 8 - - 0.0
30/01:30pm 4.9 2.3 4.0 94 0.4 SE 7 11 4 6 - - 0.0
30/01:00pm 6.2 3.9 5.5 95 0.3 E 7 13 4 7 - - 0.0
30/12:30pm 5.0 2.5 4.7 98 0.1 ESE 7 11 4 6 - - 0.0
30/12:00pm 4.0 1.4 4.0 100 0.0 E 7 11 4 6 - - 0.0
30/11:30am 3.9 0.1 3.9 100 0.0 E 13 17 7 9 - - 0.0
30/11:00am 4.2 0.5 4.2 100 0.0 E 13 20 7 11 - - 0.0
30/10:30am 4.3 0.6 4.3 100 0.0 E 13 19 7 10 - - 0.0
30/10:00am 2.5 -1.9 2.5 100 0.0 ESE 15 19 8 10 - - 0.0
30/09:30am 2.5 -1.2 2.5 100 0.0 ESE 11 19 6 10 - - 0.0
30/09:00am 2.2 -1.5 2.2 100 0.0 ESE 11 17 6 9 - - 0.0
30/08:30am 1.8 -2.8 1.8 100 0.0 SE 15 19 8 10 - - 0.0
30/08:00am 1.9 -2.3 1.9 100 0.0 SE 13 19 7 10 - - 0.0
30/07:30am 2.2 -2.3 2.2 100 0.0 SE 15 17 8 9 - - 0.0
30/07:00am 2.4 -0.9 2.4 100 0.0 SSE 9 11 5 6 - - 0.0
30/06:30am 2.5 -0.4 2.5 100 0.0 SE 7 11 4 6 - - 0.0
30/06:00am 2.3 -0.5 2.3 100 0.0 SSE 6 7 3 4 - - 0.0
30/05:30am 2.4 0.8 2.3 99 0.0 CALM 0 0 0 0 - - 0.0
30/05:00am 2.5 -0.3 2.2 98 0.1 WNW 6 6 3 3 - - 0.0
30/04:30am 2.5 -0.5 2.1 97 0.2 NW 7 9 4 5 - - 0.0
30/04:00am 2.3 -0.7 1.9 97 0.2 WNW 7 9 4 5 - - 0.0
30/03:30am 2.6 -1.3 1.4 92 0.5 NW 11 13 6 7 - - 0.0
30/03:00am 2.8 -1.4 1.9 94 0.4 NW 13 17 7 9 - - 0.0
30/02:30am 3.3 -1.4 1.0 85 1.0 NNW 15 19 8 10 - - 0.0
30/02:00am 3.0 -1.7 0.7 85 0.9 NNW 15 17 8 9 - - 0.0
30/01:30am 2.6 -2.4 1.6 93 0.4 NW 17 19 9 10 - - 0.0
30/01:00am 2.2 -3.2 1.2 93 0.4 WNW 19 20 10 11 - - 0.0
30/12:30am 2.1 -4.2 1.4 95 0.3 WNW 24 28 13 15 - - 0.0
30/12:00am 1.8 -4.1 1.4 97 0.2 WNW 22 26 12 14 - - 0.0
 
Date/Time
EST
Temp
°C
App
Temp
°C
Dew
Point
°C
Rel
Hum
%
Delta-T
°C
Wind Press
QNH
hPa
Press
MSL
hPa
Rain since
9am
mm
Dir  Spd
km/h
Gust
km/h
Spd
kts
Gust
kts
29/11:30pm 1.9 -4.5 1.0 94 0.4 NW 24 30 13 16 - - 0.0
29/11:00pm 1.5 -4.4 1.4 99 0.0 NW 22 28 12 15 - - 0.0
29/10:30pm 1.6 -4.3 1.6 100 0.0 NW 22 30 12 16 - - 0.0
29/10:00pm 1.5 -4.4 1.5 100 0.0 NW 22 28 12 15 - - 0.0
29/09:30pm 1.9 -4.8 1.2 95 0.3 NW 26 32 14 17 - - 0.0
29/09:00pm 1.8 -4.2 1.1 95 0.3 NW 22 28 12 15 - - 0.0
29/08:30pm 1.9 -5.1 1.9 100 0.0 NW 28 32 15 17 - - 0.0
29/08:00pm 1.4 -6.1 1.4 100 0.0 NNW 30 33 16 18 - - 0.0
29/07:30pm 1.5 -4.8 1.5 100 0.0 NNW 24 30 13 16 - - 0.0
29/07:00pm 1.7 -4.2 1.7 100 0.0 NW 22 28 12 15 - - 0.0
29/06:30pm 1.8 -5.2 1.8 100 0.0 NNW 28 32 15 17 - - 0.0
29/06:00pm 2.0 -3.3 1.7 98 0.1 N 19 26 10 14 - - 0.0
29/05:30pm 2.0 -4.0 1.0 93 0.4 NNW 22 30 12 16 - - 0.0
29/05:00pm 2.2 -3.9 0.7 90 0.6 NW 22 30 12 16 - - 0.0
29/04:30pm 3.0 -2.0 1.1 87 0.8 NNW 17 26 9 14 - - 0.0
29/04:00pm 3.3 -1.2 2.0 91 0.6 NNW 15 24 8 13 - - 0.0
29/03:30pm 3.1 -2.4 1.8 91 0.5 NNW 20 28 11 15 - - 0.0

Other formats

Comma delimited format used in spreadsheet applications
http://www.bom.gov.au/fwo/IDV60801/IDV60801.94833.axf

JavaScript Object Notation format (JSON) in row-major order
http://www.bom.gov.au/fwo/IDV60801/IDV60801.94833.json

Data quality

Most of these data are generated automatically and are frequently updated. Quality checks on data are not normally performed. It is possible for incorrect values to appear. Refer to information at About Latest Weather Observations and please check the disclaimer before using these data.